createdAt,value
2023-03-26T00:00:45.844Z,2.5985
2023-03-26T00:01:52.880Z,2.6995
2023-03-26T00:02:59.821Z,2.5863
2023-03-26T00:04:06.893Z,2.7971
2023-03-26T00:05:13.786Z,2.9254
2023-03-26T00:06:20.795Z,3.2426
2023-03-26T00:07:27.750Z,3.2877
2023-03-26T00:08:34.769Z,3.3258
2023-03-26T00:09:41.707Z,3.4067
2023-03-26T00:10:48.706Z,3.4556
2023-03-26T00:11:55.703Z,3.0371
2023-03-26T00:13:02.716Z,2.9136
2023-03-26T00:14:09.652Z,3.0072
2023-03-26T00:15:16.642Z,2.9349
2023-03-26T00:16:23.639Z,2.8967
2023-03-26T00:17:30.672Z,2.8021
2023-03-26T00:18:37.593Z,2.9813
2023-03-26T00:19:44.597Z,3.0858
2023-03-26T00:20:51.557Z,2.9117
2023-03-26T00:21:58.550Z,3.2018
2023-03-26T00:23:05.525Z,3.2899
2023-03-26T00:24:12.531Z,2.8732
2023-03-26T00:25:19.488Z,3.1721
2023-03-26T00:26:26.505Z,3.2384
2023-03-26T00:27:33.455Z,3.2012
2023-03-26T00:28:40.725Z,3.1294
2023-03-26T00:29:47.418Z,3.0653
2023-03-26T00:30:54.488Z,3.5453
2023-03-26T00:32:01.403Z,3.5222
2023-03-26T00:33:08.443Z,3.5474
2023-03-26T00:34:15.384Z,3.6108
2023-03-26T00:35:22.448Z,3.4939
2023-03-26T00:36:29.415Z,3.3329
2023-03-26T00:37:36.351Z,3.2244
2023-03-26T00:38:43.325Z,3.3479
2023-03-26T00:39:50.328Z,3.3561
2023-03-26T00:40:57.293Z,2.7840
2023-03-26T00:42:04.287Z,3.3056
2023-03-26T00:43:11.267Z,3.0744
2023-03-26T00:44:18.269Z,3.2816
2023-03-26T00:45:25.231Z,3.4336
2023-03-26T00:46:32.342Z,3.5348
2023-03-26T00:47:39.196Z,2.9656
2023-03-26T00:48:46.311Z,2.5690
2023-03-26T00:49:53.176Z,2.7895
2023-03-26T00:51:00.165Z,3.0560
2023-03-26T00:52:07.130Z,3.2133
2023-03-26T00:53:14.150Z,3.1011
2023-03-26T00:54:21.113Z,3.2297
2023-03-26T00:55:28.110Z,3.0572
2023-03-26T00:56:35.094Z,3.0287
2023-03-26T00:57:42.081Z,3.3958
2023-03-26T00:58:49.058Z,3.6835
2023-03-26T00:59:56.129Z,3.8051
2023-03-26T01:01:03.129Z,3.8502
2023-03-26T01:02:10.084Z,3.1684
2023-03-26T01:03:26.670Z,4.0551
2023-03-26T01:04:28.967Z,4.0140
2023-03-26T01:05:35.814Z,3.1446
2023-03-26T01:06:42.846Z,3.3287
2023-03-26T01:07:49.764Z,3.0132
2023-03-26T01:08:56.779Z,2.9283
2023-03-26T01:10:03.748Z,3.1432
2023-03-26T01:11:10.761Z,2.8754
2023-03-26T01:12:17.730Z,2.9148
2023-03-26T01:13:24.701Z,3.0137
2023-03-26T01:14:31.672Z,3.1104
2023-03-26T01:15:38.707Z,2.9912
2023-03-26T01:16:45.646Z,2.8204
2023-03-26T01:17:52.669Z,2.7389
2023-03-26T01:18:59.608Z,2.3586
2023-03-26T01:20:06.604Z,2.6353
2023-03-26T01:21:13.577Z,2.7950
2023-03-26T01:22:20.617Z,2.8412
2023-03-26T01:23:27.541Z,2.8013
2023-03-26T01:24:34.539Z,2.8642
2023-03-26T01:25:41.513Z,2.8012
2023-03-26T01:26:48.518Z,2.8855
2023-03-26T01:27:55.480Z,2.7376
2023-03-26T01:29:02.477Z,2.5771
2023-03-26T01:30:09.438Z,2.8134
2023-03-26T01:31:16.433Z,2.9539
2023-03-26T01:32:23.456Z,2.8628
2023-03-26T01:33:30.514Z,2.5308
2023-03-26T01:34:37.439Z,2.7708
2023-03-26T01:35:44.439Z,2.6876
2023-03-26T01:36:51.338Z,2.4975
2023-03-26T01:37:58.364Z,2.5007
2023-03-26T01:39:05.317Z,2.5843
2023-03-26T01:40:12.317Z,2.5908
2023-03-26T01:41:19.272Z,2.6222
2023-03-26T01:42:26.301Z,2.5580
2023-03-26T01:43:33.257Z,2.7128
2023-03-26T01:44:40.240Z,2.6535
2023-03-26T01:45:47.197Z,2.6516
2023-03-26T01:46:54.227Z,2.3274
2023-03-26T01:48:01.246Z,2.5349
2023-03-26T01:49:08.195Z,2.6726
2023-03-26T01:50:15.161Z,3.0686
2023-03-26T01:51:22.149Z,2.6644
2023-03-26T01:52:29.114Z,2.4685
2023-03-26T01:53:36.127Z,2.5350
2023-03-26T01:54:43.093Z,2.6012
2023-03-26T01:55:50.102Z,2.3334
2023-03-26T01:56:57.112Z,2.3412
2023-03-26T01:58:04.062Z,2.4767
2023-03-26T01:59:11.043Z,2.4223
2023-03-26T02:00:18.083Z,2.5637
2023-03-26T02:01:25.047Z,2.6099
2023-03-26T02:02:32.137Z,2.7678
2023-03-26T02:03:39.028Z,2.7818
2023-03-26T02:04:45.981Z,2.8682
2023-03-26T02:05:53.229Z,2.8095
2023-03-26T02:06:59.958Z,2.6103
2023-03-26T02:08:06.903Z,3.0822
2023-03-26T02:09:13.912Z,2.9332
2023-03-26T02:10:20.874Z,2.8132
2023-03-26T02:11:35.560Z,2.8440
2023-03-26T02:12:39.640Z,2.6968
2023-03-26T02:13:46.629Z,3.0827
2023-03-26T02:14:53.583Z,3.1230
2023-03-26T02:16:00.649Z,3.0121
2023-03-26T02:17:07.572Z,2.7515
2023-03-26T02:18:14.559Z,2.6469
2023-03-26T02:19:21.838Z,2.4983
2023-03-26T02:20:28.529Z,2.7855
2023-03-26T02:21:35.501Z,2.7973
2023-03-26T02:22:42.499Z,2.6611
2023-03-26T02:23:49.463Z,2.5339
2023-03-26T02:24:56.459Z,2.2137
2023-03-26T02:26:03.418Z,2.6946
2023-03-26T02:27:10.460Z,2.5889
2023-03-26T02:28:17.385Z,2.5502
2023-03-26T02:29:24.382Z,2.8790
2023-03-26T02:30:31.389Z,2.9247
2023-03-26T02:31:38.472Z,3.1677
2023-03-26T02:32:45.354Z,3.3838
2023-03-26T02:33:52.329Z,3.1168
2023-03-26T02:34:59.282Z,3.2960
2023-03-26T02:36:06.353Z,3.3207
2023-03-26T02:37:13.256Z,3.6114
2023-03-26T02:38:20.271Z,2.8419
2023-03-26T02:39:27.241Z,3.0357
2023-03-26T02:40:34.230Z,3.1500
2023-03-26T02:41:41.229Z,2.8545
2023-03-26T02:42:48.195Z,2.7020
2023-03-26T02:43:55.167Z,2.8414
2023-03-26T02:45:02.168Z,2.9018
2023-03-26T02:46:09.172Z,2.9208
2023-03-26T02:47:16.131Z,2.8907
2023-03-26T02:48:23.095Z,2.7656
2023-03-26T02:49:30.121Z,2.9892
2023-03-26T02:50:37.105Z,2.8389
2023-03-26T02:51:44.088Z,2.2560
2023-03-26T02:52:51.041Z,2.2947
2023-03-26T02:53:58.039Z,2.5389
2023-03-26T02:55:05.009Z,2.4096
2023-03-26T02:56:12.033Z,2.3280
2023-03-26T02:57:18.976Z,2.3566
2023-03-26T02:58:25.968Z,2.2596
2023-03-26T02:59:32.932Z,2.2735
2023-03-26T03:00:39.950Z,2.3633
2023-03-26T03:01:46.911Z,2.3994
2023-03-26T03:02:54.010Z,2.2120
2023-03-26T03:04:00.869Z,2.3559
2023-03-26T03:05:07.875Z,2.2560
2023-03-26T03:06:14.853Z,2.2852
2023-03-26T03:07:21.841Z,2.2873
2023-03-26T03:08:28.814Z,2.1996
2023-03-26T03:09:35.807Z,2.3243
2023-03-26T03:10:42.769Z,1.9453
2023-03-26T03:11:49.776Z,2.0389
2023-03-26T03:12:56.733Z,2.2830
2023-03-26T03:14:03.803Z,2.1769
2023-03-26T03:15:10.720Z,2.2406
2023-03-26T03:16:17.753Z,2.1118
2023-03-26T03:17:24.719Z,2.1164
2023-03-26T03:18:31.675Z,2.0784
2023-03-26T03:19:38.653Z,2.5494
2023-03-26T03:20:45.668Z,2.4139
2023-03-26T03:21:52.618Z,2.2639
2023-03-26T03:22:59.624Z,2.1273
2023-03-26T03:24:06.592Z,2.4610
2023-03-26T03:25:13.582Z,2.3564
2023-03-26T03:26:20.565Z,2.2651
2023-03-26T03:27:27.573Z,2.4650
2023-03-26T03:28:34.531Z,2.5709
2023-03-26T03:29:41.529Z,2.2141
2023-03-26T03:30:48.517Z,2.4654
2023-03-26T03:31:55.518Z,2.5079
2023-03-26T03:33:02.553Z,2.5085
2023-03-26T03:34:09.475Z,2.6470
2023-03-26T03:35:16.449Z,2.7401
2023-03-26T03:36:23.437Z,2.5077
2023-03-26T03:37:30.417Z,2.4892
2023-03-26T03:38:37.446Z,2.6975
2023-03-26T03:39:44.410Z,2.6598
2023-03-26T03:40:51.364Z,2.7661
2023-03-26T03:41:58.365Z,2.9323
2023-03-26T03:43:05.361Z,2.7376
2023-03-26T03:44:12.344Z,3.0493
2023-03-26T03:45:19.315Z,3.2708
2023-03-26T03:46:26.351Z,3.3597
2023-03-26T03:47:33.336Z,3.8863
2023-03-26T03:48:40.281Z,3.7960
2023-03-26T03:49:47.243Z,3.8252
2023-03-26T03:50:54.250Z,3.7379
2023-03-26T03:52:01.223Z,3.8368
2023-03-26T03:53:08.213Z,3.0514
2023-03-26T03:54:15.179Z,3.0838
2023-03-26T03:55:22.200Z,2.9047
2023-03-26T03:56:29.194Z,3.4685
2023-03-26T03:57:36.150Z,3.5180
2023-03-26T03:58:43.138Z,3.3436
2023-03-26T03:59:50.115Z,3.6074
2023-03-26T04:00:57.090Z,3.1213
2023-03-26T04:02:04.101Z,3.6239
2023-03-26T04:03:11.151Z,2.6002
2023-03-26T04:04:18.093Z,2.9216
2023-03-26T04:05:25.011Z,2.7177
2023-03-26T04:06:32.024Z,2.9626
2023-03-26T04:07:39.007Z,2.9388
2023-03-26T04:08:45.994Z,3.0735
2023-03-26T04:09:52.957Z,2.7076
2023-03-26T04:10:59.947Z,2.6644
2023-03-26T04:12:06.913Z,2.5281
2023-03-26T04:13:13.933Z,2.7798
2023-03-26T04:14:20.895Z,2.7085
2023-03-26T04:15:28.110Z,2.5992
2023-03-26T04:16:34.909Z,3.2507
2023-03-26T04:17:41.876Z,2.7395
2023-03-26T04:18:48.812Z,2.9328
2023-03-26T04:19:55.822Z,2.9676
2023-03-26T04:21:02.780Z,2.8673
2023-03-26T04:22:09.794Z,2.9181
2023-03-26T04:23:16.742Z,3.3361
2023-03-26T04:24:23.769Z,3.0933
2023-03-26T04:25:30.718Z,3.0444
2023-03-26T04:26:37.730Z,2.6752
2023-03-26T04:27:44.681Z,2.2704
2023-03-26T04:28:51.683Z,2.3425
2023-03-26T04:29:58.657Z,2.3279
2023-03-26T04:31:05.691Z,2.4551
2023-03-26T04:32:12.607Z,2.4032
2023-03-26T04:33:19.615Z,2.3088
2023-03-26T04:34:26.598Z,2.2719
2023-03-26T04:35:33.607Z,2.4771
2023-03-26T04:36:40.576Z,2.1906
2023-03-26T04:37:47.570Z,2.3722
2023-03-26T04:38:54.529Z,2.6336
2023-03-26T04:40:01.513Z,2.9278
2023-03-26T04:41:08.478Z,3.1772
2023-03-26T04:42:15.522Z,3.2471
2023-03-26T04:43:22.436Z,3.2478
2023-03-26T04:44:29.444Z,3.5524
2023-03-26T04:45:36.402Z,3.8525
2023-03-26T04:46:43.523Z,3.7137
2023-03-26T04:47:50.482Z,3.7360
2023-03-26T04:48:57.410Z,3.6246
2023-03-26T04:50:04.350Z,3.7935
2023-03-26T04:51:11.343Z,4.0562
2023-03-26T04:52:18.300Z,4.1561
2023-03-26T04:53:25.295Z,4.3084
2023-03-26T04:54:32.289Z,4.2822
2023-03-26T04:55:39.290Z,3.9453
2023-03-26T04:56:46.282Z,4.0322
2023-03-26T04:57:53.252Z,3.5314
2023-03-26T04:59:00.187Z,3.6710
2023-03-26T05:00:07.190Z,3.9394
2023-03-26T05:01:14.206Z,3.1670
2023-03-26T05:02:21.164Z,3.1148
2023-03-26T05:03:28.118Z,3.2020
2023-03-26T05:04:35.239Z,3.2151
2023-03-26T05:05:42.146Z,3.4576
2023-03-26T05:06:49.162Z,3.1596
2023-03-26T05:07:56.135Z,3.2098
2023-03-26T05:09:03.150Z,3.5172
2023-03-26T05:10:10.093Z,3.2776
2023-03-26T05:11:17.096Z,3.1424
2023-03-26T05:12:24.062Z,3.0148
2023-03-26T05:13:31.080Z,2.6580
2023-03-26T05:14:38.046Z,2.7799
2023-03-26T05:15:45.048Z,2.9412
2023-03-26T05:16:52.014Z,3.2619
2023-03-26T05:17:59.124Z,3.2638
2023-03-26T05:19:05.960Z,3.2500
2023-03-26T05:20:12.981Z,2.7343
2023-03-26T05:21:19.945Z,2.6397
2023-03-26T05:22:26.942Z,2.9243
2023-03-26T05:23:33.897Z,2.9948
2023-03-26T05:24:40.902Z,3.1956
2023-03-26T05:25:47.883Z,2.9580
2023-03-26T05:26:54.896Z,3.1622
2023-03-26T05:28:01.828Z,3.1376
2023-03-26T05:29:08.839Z,3.3206
2023-03-26T05:30:15.798Z,2.9121
2023-03-26T05:31:22.810Z,3.0847
2023-03-26T05:32:29.829Z,2.9008
2023-03-26T05:33:36.850Z,2.6867
2023-03-26T05:34:43.724Z,3.2782
2023-03-26T05:35:50.731Z,2.6308
2023-03-26T05:36:57.705Z,3.2835
2023-03-26T05:38:04.692Z,2.9323
2023-03-26T05:39:11.662Z,2.7408
2023-03-26T05:40:18.657Z,2.8757
2023-03-26T05:41:25.638Z,2.8835
2023-03-26T05:42:32.644Z,2.5319
2023-03-26T05:43:39.686Z,3.0160
2023-03-26T05:44:46.597Z,3.2432
2023-03-26T05:45:53.604Z,3.1740
2023-03-26T05:47:00.572Z,3.0934
2023-03-26T05:48:07.577Z,3.8068
2023-03-26T05:49:14.550Z,4.3180
2023-03-26T05:50:21.506Z,5.0527
2023-03-26T05:51:28.500Z,5.4569
2023-03-26T05:52:35.484Z,4.6607
2023-03-26T05:53:42.466Z,4.5365
2023-03-26T05:54:49.454Z,4.3559
2023-03-26T05:55:56.445Z,4.2608
2023-03-26T05:57:03.418Z,4.1438
2023-03-26T05:58:10.450Z,4.3074
2023-03-26T05:59:17.373Z,3.7738
2023-03-26T06:00:24.385Z,3.2273
2023-03-26T06:01:31.343Z,3.7130
2023-03-26T06:02:38.341Z,3.5935
2023-03-26T06:03:45.369Z,3.0638
2023-03-26T06:04:52.323Z,3.6009
2023-03-26T06:05:59.275Z,4.0816
2023-03-26T06:07:06.282Z,4.2034
2023-03-26T06:08:13.289Z,4.4858
2023-03-26T06:09:20.217Z,4.0935
2023-03-26T06:10:27.230Z,3.6224
2023-03-26T06:11:34.204Z,3.6070
2023-03-26T06:12:41.171Z,3.7557
2023-03-26T06:13:48.144Z,3.4006
2023-03-26T06:14:55.111Z,3.5339
2023-03-26T06:16:02.222Z,3.4713
2023-03-26T06:17:09.091Z,3.0610
2023-03-26T06:18:16.105Z,3.4429
2023-03-26T06:19:23.058Z,3.4664
2023-03-26T06:20:30.058Z,3.3470
2023-03-26T06:21:37.026Z,3.1725
2023-03-26T06:22:44.039Z,3.4955
2023-03-26T06:23:51.004Z,3.6741
2023-03-26T06:24:58.012Z,3.3877
2023-03-26T06:26:04.985Z,3.4844
2023-03-26T06:27:11.978Z,3.2164
2023-03-26T06:28:18.930Z,3.5456
2023-03-26T06:29:25.954Z,3.4086
2023-03-26T06:30:32.924Z,3.3852
2023-03-26T06:31:39.918Z,3.3719
2023-03-26T06:32:46.994Z,3.1762
2023-03-26T06:33:53.877Z,2.5553
2023-03-26T06:35:00.844Z,2.4881
2023-03-26T06:36:07.883Z,2.4813
2023-03-26T06:37:14.819Z,2.5911
2023-03-26T06:38:21.815Z,2.3123
2023-03-26T06:39:28.767Z,2.0759
2023-03-26T06:40:35.767Z,2.6270
2023-03-26T06:41:42.750Z,2.3344
2023-03-26T06:43:09.586Z,2.3291
2023-03-26T06:44:01.500Z,2.5764
2023-03-26T06:45:08.491Z,2.5256
2023-03-26T06:46:15.483Z,2.5599
2023-03-26T06:47:22.485Z,2.7111
2023-03-26T06:48:29.419Z,2.5439
2023-03-26T06:49:36.424Z,2.5665
2023-03-26T06:50:43.409Z,2.7523
2023-03-26T06:51:50.398Z,2.8470
2023-03-26T06:52:57.355Z,2.5605
2023-03-26T06:54:04.358Z,2.7487
2023-03-26T06:55:11.350Z,2.5383
2023-03-26T06:56:18.343Z,2.5812
2023-03-26T06:57:25.296Z,2.6503
2023-03-26T06:58:32.291Z,2.6967
2023-03-26T06:59:39.247Z,2.6846
2023-03-26T07:00:46.321Z,2.4653
2023-03-26T07:01:53.241Z,2.6046
2023-03-26T07:03:00.251Z,2.6349
2023-03-26T07:04:07.267Z,2.8517
2023-03-26T07:05:14.198Z,2.6747
2023-03-26T07:06:21.177Z,2.7755
2023-03-26T07:07:28.177Z,2.7398
2023-03-26T07:08:35.130Z,2.6054
2023-03-26T07:09:42.119Z,2.3199
2023-03-26T07:10:49.080Z,2.4336
2023-03-26T07:11:56.100Z,2.5064
2023-03-26T07:13:03.072Z,2.4594
2023-03-26T07:14:10.077Z,2.6635
2023-03-26T07:15:17.021Z,2.6128
2023-03-26T07:16:24.062Z,2.4456
2023-03-26T07:17:31.069Z,2.4073
2023-03-26T07:18:38.012Z,2.2980
2023-03-26T07:19:44.975Z,2.5540
2023-03-26T07:20:52.082Z,2.5567
2023-03-26T07:21:58.928Z,2.6305
2023-03-26T07:23:05.932Z,2.4050
2023-03-26T07:24:12.902Z,2.5456
2023-03-26T07:25:19.929Z,2.6778
2023-03-26T07:26:26.887Z,2.6069
2023-03-26T07:27:33.860Z,2.4410
2023-03-26T07:28:40.849Z,2.5410
2023-03-26T07:29:47.854Z,2.3670
2023-03-26T07:30:54.948Z,2.2790
2023-03-26T07:32:01.875Z,2.3630
2023-03-26T07:33:08.756Z,2.3635
2023-03-26T07:34:15.756Z,2.4105
2023-03-26T07:35:22.737Z,2.4316
2023-03-26T07:36:29.758Z,2.2995
2023-03-26T07:37:36.729Z,2.3342
2023-03-26T07:38:43.697Z,2.3853
2023-03-26T07:39:50.654Z,2.5292
2023-03-26T07:40:57.664Z,2.2889
2023-03-26T07:42:04.632Z,2.3485
2023-03-26T07:43:11.635Z,2.3848
2023-03-26T07:44:18.590Z,2.2742
2023-03-26T07:45:25.586Z,2.5890
2023-03-26T07:46:32.544Z,2.2824
2023-03-26T07:47:39.582Z,2.3242
2023-03-26T07:48:46.529Z,2.4384
2023-03-26T07:49:53.532Z,2.5823
2023-03-26T07:51:00.480Z,2.5397
2023-03-26T07:52:07.482Z,2.4063
2023-03-26T07:53:14.452Z,2.6151
2023-03-26T07:54:21.454Z,2.7117
2023-03-26T07:55:28.427Z,2.8453
2023-03-26T07:56:35.555Z,2.5023
2023-03-26T07:57:42.437Z,2.5899
2023-03-26T07:58:49.386Z,2.3372
2023-03-26T07:59:56.327Z,2.2752
2023-03-26T08:01:03.341Z,2.5597
2023-03-26T08:02:10.305Z,2.6491
2023-03-26T08:03:17.569Z,2.4333
2023-03-26T08:04:25.940Z,2.4158
2023-03-26T08:05:36.051Z,2.7839
2023-03-26T08:06:43.020Z,2.5005
2023-03-26T08:07:50.027Z,2.5891
2023-03-26T08:08:56.978Z,2.3004
2023-03-26T08:10:04.023Z,2.0968
2023-03-26T08:11:10.953Z,2.4298
2023-03-26T08:12:17.943Z,2.7216
2023-03-26T08:13:24.908Z,2.3395
2023-03-26T08:14:31.916Z,2.3907
2023-03-26T08:15:38.945Z,2.6173
2023-03-26T08:16:45.919Z,2.3724
2023-03-26T08:17:52.929Z,2.2639
2023-03-26T08:18:59.840Z,2.1748
2023-03-26T08:20:06.834Z,2.4785
2023-03-26T08:21:13.835Z,2.4535
2023-03-26T08:22:20.794Z,2.3165
2023-03-26T08:23:27.808Z,2.3152
2023-03-26T08:24:34.750Z,2.5402
2023-03-26T08:25:41.703Z,2.4934
2023-03-26T08:26:48.730Z,2.7337
2023-03-26T08:27:55.709Z,3.3024
2023-03-26T08:29:02.673Z,3.1091
2023-03-26T08:30:09.661Z,3.4775
2023-03-26T08:31:16.677Z,3.1328
2023-03-26T08:32:23.625Z,2.7560
2023-03-26T08:33:30.646Z,2.2492
2023-03-26T08:34:37.575Z,2.2445
2023-03-26T08:35:44.593Z,2.2224
2023-03-26T08:36:51.536Z,2.3435
2023-03-26T08:37:58.550Z,2.4107
2023-03-26T08:39:05.517Z,2.5071
2023-03-26T08:40:12.504Z,2.0782
2023-03-26T08:41:19.474Z,2.1517
2023-03-26T08:42:26.479Z,2.5521
2023-03-26T08:43:33.475Z,3.1441
2023-03-26T08:44:40.466Z,2.7407
2023-03-26T08:45:47.413Z,2.3421
2023-03-26T08:46:54.482Z,2.1881
2023-03-26T08:48:01.419Z,2.1917
2023-03-26T08:49:08.396Z,2.0619
2023-03-26T08:50:15.359Z,1.9806
2023-03-26T08:51:22.358Z,2.0018
2023-03-26T08:52:29.329Z,1.8159
2023-03-26T08:53:36.319Z,1.5881
2023-03-26T08:54:43.320Z,2.0101
2023-03-26T08:55:50.299Z,2.1206
2023-03-26T08:56:57.296Z,1.9930
2023-03-26T08:58:04.287Z,1.9463
2023-03-26T08:59:11.231Z,1.7503
2023-03-26T09:00:18.234Z,1.8425
2023-03-26T09:01:25.232Z,1.7138
2023-03-26T09:02:32.249Z,2.0513
2023-03-26T09:03:39.208Z,1.7072
2023-03-26T09:04:46.169Z,1.8575
2023-03-26T09:05:53.117Z,2.0001
2023-03-26T09:07:00.132Z,2.0691
2023-03-26T09:08:07.165Z,2.1863
2023-03-26T09:09:19.250Z,2.5128
2023-03-26T09:10:25.909Z,2.5533
2023-03-26T09:11:32.908Z,2.4599
2023-03-26T09:12:39.875Z,2.3836
2023-03-26T09:13:46.885Z,2.4830
2023-03-26T09:14:53.846Z,2.5320
2023-03-26T09:16:00.851Z,2.5315
2023-03-26T09:17:07.834Z,2.5844
2023-03-26T09:18:14.816Z,2.5544
2023-03-26T09:19:21.801Z,2.8503
2023-03-26T09:20:28.816Z,2.6497
2023-03-26T09:21:35.720Z,2.3209
2023-03-26T09:22:42.725Z,2.4948
2023-03-26T09:23:49.698Z,2.4282
2023-03-26T09:24:56.711Z,2.6511
2023-03-26T09:26:03.659Z,2.6303
2023-03-26T09:27:10.643Z,2.8474
2023-03-26T09:28:17.609Z,2.8176
2023-03-26T09:29:24.604Z,2.9414
2023-03-26T09:30:31.591Z,2.6098
2023-03-26T09:31:38.623Z,2.9805
2023-03-26T09:32:45.600Z,2.7892
2023-03-26T09:33:52.526Z,2.4935
2023-03-26T09:34:59.484Z,2.4896
2023-03-26T09:36:06.508Z,2.8597
2023-03-26T09:37:13.467Z,2.9365
2023-03-26T09:38:20.484Z,2.7758
2023-03-26T09:39:27.427Z,2.4967
2023-03-26T09:40:34.413Z,2.7577
2023-03-26T09:41:41.399Z,2.6651
2023-03-26T09:42:48.397Z,2.6745
2023-03-26T09:43:55.348Z,2.5900
2023-03-26T09:45:02.345Z,2.5102
2023-03-26T09:46:09.345Z,2.5422
2023-03-26T09:47:16.325Z,2.5538
2023-03-26T09:48:23.269Z,2.4351
2023-03-26T09:49:30.266Z,2.2049
2023-03-26T09:50:37.221Z,2.2984
2023-03-26T09:51:44.256Z,2.4359
2023-03-26T09:52:51.208Z,2.3588
2023-03-26T09:53:58.186Z,2.2670
2023-03-26T09:55:05.164Z,1.9849
2023-03-26T09:56:12.156Z,2.1871
2023-03-26T09:57:19.260Z,2.2628
2023-03-26T09:58:26.159Z,2.0498
2023-03-26T09:59:33.106Z,1.9421
2023-03-26T10:00:40.113Z,2.0253
2023-03-26T10:01:47.043Z,2.0020
2023-03-26T10:02:54.089Z,1.9845
2023-03-26T10:04:01.011Z,2.1537
2023-03-26T10:05:08.089Z,2.1669
2023-03-26T10:06:14.962Z,2.1084
2023-03-26T10:07:21.968Z,1.9750
2023-03-26T10:08:31.632Z,2.0347
2023-03-26T10:09:40.727Z,2.4080
2023-03-26T10:10:47.663Z,2.2509
2023-03-26T10:11:54.665Z,2.2316
2023-03-26T10:13:13.658Z,2.0113
2023-03-26T10:14:13.426Z,1.9931
2023-03-26T10:15:20.393Z,2.0175
2023-03-26T10:16:27.407Z,1.9316
2023-03-26T10:17:34.417Z,2.0774
2023-03-26T10:18:41.332Z,2.0718
2023-03-26T10:19:48.301Z,2.2246
2023-03-26T10:20:55.476Z,2.5674
2023-03-26T10:22:02.246Z,2.1790
2023-03-26T10:23:09.244Z,2.3013
2023-03-26T10:24:16.209Z,2.5978
2023-03-26T10:25:23.238Z,2.3870
2023-03-26T10:26:30.168Z,2.3361
2023-03-26T10:27:37.173Z,2.3516
2023-03-26T10:28:44.129Z,2.0506
2023-03-26T10:29:51.131Z,2.0156
2023-03-26T10:30:58.248Z,2.2709
2023-03-26T10:32:05.096Z,2.5589
2023-03-26T10:33:12.045Z,2.2539
2023-03-26T10:34:28.571Z,2.3351
2023-03-26T10:35:30.804Z,2.4109
2023-03-26T10:36:37.804Z,2.0092
2023-03-26T10:37:45.557Z,1.9543
2023-03-26T10:38:51.752Z,2.0949
2023-03-26T10:39:58.712Z,2.2018
2023-03-26T10:41:05.709Z,2.1352
2023-03-26T10:42:12.686Z,1.9771
2023-03-26T10:43:19.686Z,2.2695
2023-03-26T10:44:26.635Z,2.1453
2023-03-26T10:45:33.634Z,2.0099
2023-03-26T10:46:40.619Z,1.8130
2023-03-26T10:47:47.630Z,2.0174
2023-03-26T10:48:54.563Z,2.0639
2023-03-26T10:50:01.554Z,1.9357
2023-03-26T10:51:08.500Z,2.4733
2023-03-26T10:52:15.498Z,2.1320
2023-03-26T10:53:22.467Z,2.1078
2023-03-26T10:54:29.467Z,2.0830
2023-03-26T10:55:36.436Z,1.9675
2023-03-26T10:56:43.445Z,2.2007
2023-03-26T10:57:50.380Z,2.0632
2023-03-26T10:58:57.395Z,1.9857
2023-03-26T11:00:04.327Z,1.9491
2023-03-26T11:01:11.352Z,1.9938
2023-03-26T11:02:18.280Z,2.2303
2023-03-26T11:03:25.279Z,2.0566
2023-03-26T11:04:32.254Z,2.0180
2023-03-26T11:05:39.310Z,1.9570
2023-03-26T11:06:46.202Z,1.7796
2023-03-26T11:07:53.194Z,1.9832
2023-03-26T11:09:00.160Z,2.1108
2023-03-26T11:10:07.184Z,2.1413
2023-03-26T11:11:14.121Z,2.2996
2023-03-26T11:12:27.280Z,2.1981
2023-03-26T11:13:32.853Z,2.2464
2023-03-26T11:14:39.854Z,2.0970
2023-03-26T11:15:46.859Z,2.0834
2023-03-26T11:16:53.823Z,2.3425
2023-03-26T11:18:00.799Z,2.2110
2023-03-26T11:19:07.774Z,1.9618
2023-03-26T11:20:14.745Z,1.9121
2023-03-26T11:21:21.743Z,2.1188
2023-03-26T11:22:28.882Z,2.2161
2023-03-26T11:23:35.691Z,2.2980
2023-03-26T11:24:42.656Z,2.0214
2023-03-26T11:25:49.655Z,1.7735
2023-03-26T11:26:56.626Z,1.8978
2023-03-26T11:28:03.613Z,2.0850
2023-03-26T11:29:32.891Z,2.0406
2023-03-26T11:30:22.350Z,1.8111
2023-03-26T11:31:29.351Z,1.8754
2023-03-26T11:32:36.345Z,1.8254
2023-03-26T11:33:45.597Z,2.0587
2023-03-26T11:34:55.084Z,1.6395
2023-03-26T11:36:02.031Z,2.0461
2023-03-26T11:37:09.011Z,1.7995
2023-03-26T11:38:16.005Z,1.6817
2023-03-26T11:39:22.974Z,2.0168
2023-03-26T11:40:29.930Z,2.2750
2023-03-26T11:41:36.925Z,1.6997
2023-03-26T11:42:43.890Z,1.7117
2023-03-26T11:43:50.903Z,1.7832
2023-03-26T11:44:57.870Z,1.4360
2023-03-26T11:46:04.882Z,1.5903
2023-03-26T11:47:11.827Z,1.6352
2023-03-26T11:48:18.804Z,1.3973
2023-03-26T11:49:25.786Z,1.3322
2023-03-26T11:50:32.782Z,1.3322
2023-03-26T11:51:39.735Z,1.4071
2023-03-26T11:52:47.154Z,1.7240
2023-03-26T11:53:53.690Z,1.5629
2023-03-26T11:55:00.700Z,1.5104
2023-03-26T11:56:07.732Z,1.4663
2023-03-26T11:57:14.680Z,1.6574
2023-03-26T11:58:21.619Z,1.6958
2023-03-26T11:59:28.609Z,1.6647
2023-03-26T12:00:35.556Z,1.6175
2023-03-26T12:01:42.597Z,1.5751
2023-03-26T12:02:49.600Z,1.6038
2023-03-26T12:03:56.549Z,1.7454
2023-03-26T12:05:03.459Z,1.4039
2023-03-26T12:06:10.471Z,1.6703
2023-03-26T12:07:17.438Z,1.8108
2023-03-26T12:08:24.450Z,1.7080
2023-03-26T12:09:31.385Z,1.5887
2023-03-26T12:10:38.630Z,1.5275
2023-03-26T12:11:45.332Z,1.6965
2023-03-26T12:12:52.355Z,1.7789
2023-03-26T12:13:59.303Z,1.7173
2023-03-26T12:15:06.302Z,1.5969
2023-03-26T12:16:13.331Z,1.4308
2023-03-26T12:17:20.248Z,1.5155
2023-03-26T12:18:32.028Z,1.3929
2023-03-26T12:19:39.011Z,1.5466
2023-03-26T12:20:45.975Z,1.7248
2023-03-26T12:21:52.951Z,1.3154
2023-03-26T12:22:59.909Z,1.2596
2023-03-26T12:24:06.915Z,1.2072
2023-03-26T12:25:13.890Z,1.3724
2023-03-26T12:26:20.863Z,1.2878
2023-03-26T12:27:27.822Z,1.3068
2023-03-26T12:28:34.819Z,1.3035
2023-03-26T12:29:41.788Z,1.1928
2023-03-26T12:30:48.799Z,1.0687
2023-03-26T12:31:55.943Z,1.1592
2023-03-26T12:33:02.773Z,1.2860
2023-03-26T12:34:09.707Z,1.1583
2023-03-26T12:35:16.701Z,1.0360
2023-03-26T12:36:23.668Z,1.1654
2023-03-26T12:37:30.653Z,1.0302
2023-03-26T12:38:37.621Z,1.0164
2023-03-26T12:40:09.944Z,1.2516
2023-03-26T12:40:56.455Z,1.0334
2023-03-26T12:43:40.603Z,1.1583
2023-03-26T12:44:54.027Z,1.1490
2023-03-26T12:44:55.724Z,0.9680
2023-03-26T12:45:38.673Z,1.0241
2023-03-26T12:47:58.245Z,0.9736
2023-03-26T12:48:03.889Z,1.0249
2023-03-26T12:49:09.237Z,1.0025
2023-03-26T12:50:16.105Z,0.8124
2023-03-26T12:51:23.112Z,0.9804
2023-03-26T12:52:30.076Z,0.8734
2023-03-26T12:53:37.087Z,0.8597
2023-03-26T12:54:44.024Z,0.8897
2023-03-26T12:55:51.033Z,0.8786
2023-03-26T12:57:11.401Z,0.9796
2023-03-26T12:58:14.031Z,0.9214
2023-03-26T12:59:21.533Z,0.8853
2023-03-26T13:00:28.513Z,1.0004
2023-03-26T13:01:35.508Z,0.9821
2023-03-26T13:02:42.519Z,0.7758
2023-03-26T13:03:51.821Z,0.8816
2023-03-26T13:05:06.425Z,0.8896
2023-03-26T13:06:12.970Z,0.7393
2023-03-26T13:07:19.949Z,0.9096
2023-03-26T13:08:26.908Z,0.9445
2023-03-26T13:09:33.926Z,0.8608
2023-03-26T13:10:40.906Z,0.9805
2023-03-26T13:11:47.855Z,1.0151
2023-03-26T13:12:54.842Z,0.8860
2023-03-26T13:14:01.814Z,1.3334
2023-03-26T13:15:08.870Z,1.0737
2023-03-26T13:16:15.850Z,1.0608
2023-03-26T13:17:22.923Z,0.9946
2023-03-26T13:18:29.803Z,1.0612
2023-03-26T13:19:36.782Z,1.0610
2023-03-26T13:20:43.752Z,1.0818
2023-03-26T13:21:53.017Z,0.9381
2023-03-26T13:23:02.505Z,0.6966
2023-03-26T13:24:09.505Z,0.8839
2023-03-26T13:25:16.465Z,1.1874
2023-03-26T13:26:23.453Z,0.9507
2023-03-26T13:27:30.413Z,0.9203
2023-03-26T13:28:37.403Z,1.0235
2023-03-26T13:29:44.375Z,0.7485
2023-03-26T13:30:51.409Z,0.9266
2023-03-26T13:31:58.361Z,0.7946
2023-03-26T13:33:05.378Z,0.7974
2023-03-26T13:34:12.303Z,0.7858
2023-03-26T13:35:19.326Z,0.7686
2023-03-26T13:36:26.317Z,0.9241
2023-03-26T13:37:33.262Z,0.9412
2023-03-26T13:38:40.201Z,0.9024
2023-03-26T13:39:47.230Z,0.8802
2023-03-26T13:40:54.338Z,2.0186
2023-03-26T13:42:01.190Z,2.5450
2023-03-26T13:43:08.121Z,2.3759
2023-03-26T13:44:15.167Z,1.6605
2023-03-26T13:45:22.227Z,1.0084
2023-03-26T13:46:29.124Z,0.8521
2023-03-26T13:47:36.075Z,0.8383
2023-03-26T13:48:43.036Z,0.8485
2023-03-26T13:49:49.997Z,0.9113
2023-03-26T13:50:57.182Z,1.0427
2023-03-26T13:52:03.965Z,1.2712
2023-03-26T13:53:10.989Z,1.2690
2023-03-26T13:54:17.912Z,1.0692
2023-03-26T13:55:24.907Z,1.0281
2023-03-26T13:56:31.933Z,1.3564
2023-03-26T13:57:38.924Z,1.3297